Камери на живо
ЦПИ
02 9374270
ЦКИВП
02 9371284
ЦКИВП
02 9374762
Партньори:
системи за видеонаблюдение
telenor
telesys
УЧИЛИЩЕ ЗА ПИЛОТИ ОЛИМПИЯ ЕР
Еър Ситис ЕООД
Авиационен Център Долна Баня
Камери на живо - sub stream
METAR for:LBSF (Sofia Intl, SO, BG)
Text:LBSF 220630Z 29008KT 260V330 9999 FEW050 08/03 Q1016 NOSIG
Conditions at:0630 UTC 22 Apr 2024
Temperature: 8.0°C ( 46°F)
Dewpoint: 3.0°C ( 37°F) [RH = 71%]
Pressure (altimeter):30.00 inches Hg (1016.0 mb)
Winds:from the WNW (290 degrees) at 9 MPH (8 knots; 4.1 m/s)
Visibility:6 or more sm (10+ km)
Ceiling:at least 12,000 feet AGL
Clouds:few clouds at 5000 feet AGL

METAR for:LBPD (Plovdiv Arpt, PL, BG)
Text:LBPD 220630Z AUTO 29015KT 9999 NCD 12/05 Q1017 NOSIG
Conditions at:0630 UTC 22 Apr 2024
Temperature: 12.0°C ( 54°F)
Dewpoint: 5.0°C ( 41°F) [RH = 62%]
Pressure (altimeter):30.03 inches Hg (1017.0 mb)
Winds:from the WNW (290 degrees) at 17 MPH (15 knots; 7.7 m/s)
Visibility:6 or more sm (10+ km)
Ceiling:at least 12,000 feet AGL
Clouds:sky clear below 12,000 feet AGL

METAR for:LBWN (Varna Intl, VA, BG)
Text:LBWN 220630Z 27017KT 9999 BKN019 11/07 Q1014 NOSIG
Conditions at:0630 UTC 22 Apr 2024
Temperature: 11.0°C ( 52°F)
Dewpoint: 7.0°C ( 45°F) [RH = 76%]
Pressure (altimeter):29.94 inches Hg (1014.0 mb)
Winds:from the W (270 degrees) at 20 MPH (17 knots; 8.7 m/s)
Visibility:6 or more sm (10+ km)
Ceiling:1900 feet AGL
Clouds:broken clouds at 1900 feet AGL

METAR for:LBBG (Burgas Arpt, BU, BG)
Text:LBBG 220630Z 25011KT 220V280 9999 FEW023 13/09 Q1015 NOSIG
Conditions at:0630 UTC 22 Apr 2024
Temperature: 13.0°C ( 55°F)
Dewpoint: 9.0°C ( 48°F) [RH = 77%]
Pressure (altimeter):29.97 inches Hg (1015.0 mb)
Winds:from the WSW (250 degrees) at 13 MPH (11 knots; 5.7 m/s)
Visibility:6 or more sm (10+ km)
Ceiling:at least 12,000 feet AGL
Clouds:few clouds at 2300 feet AGL

METAR for:LBGO (Gorna Orechovista Arpt, LO, BG)
Text:LBGO 220630Z AUTO 27017KT 9999 SCT028/// BKN037/// 12/06 Q1016 NOSIG
Conditions at:0630 UTC 22 Apr 2024
Temperature: 12.0°C ( 54°F)
Dewpoint: 6.0°C ( 43°F) [RH = 67%]
Pressure (altimeter):30.00 inches Hg (1016.0 mb)
Winds:from the W (270 degrees) at 20 MPH (17 knots; 8.7 m/s)
Visibility:6 or more sm (10+ km)
Ceiling:3700 feet AGL
Clouds:scattered clouds at 2800 feet AGL, broken clouds at 3700 feet AGL

METAR for:LBPG (Graf Ignatievo(AB), PL, BG)
Text:LBPG 220600Z 25014KT 9999 FEW060 SCT200 10/07 Q1016
Conditions at:0600 UTC 22 Apr 2024
Temperature: 10.0°C ( 50°F)
Dewpoint: 7.0°C ( 45°F) [RH = 82%]
Pressure (altimeter):30.00 inches Hg (1016.0 mb)
Winds:from the WSW (250 degrees) at 16 MPH (14 knots; 7.2 m/s)
Visibility:6 or more sm (10+ km)
Ceiling:at least 12,000 feet AGL
Clouds:few clouds at 6000 feet AGL, scattered clouds at 20000 feet AGL

METAR for:LBIA (Bezmer(AB), BU, BG)
Text:LBIA 220600Z 24010KT 9999 FEW050 SCT100 10/08 Q1015
Conditions at:0600 UTC 22 Apr 2024
Temperature: 10.0°C ( 50°F)
Dewpoint: 8.0°C ( 46°F) [RH = 87%]
Pressure (altimeter):29.97 inches Hg (1015.0 mb)
Winds:from the WSW (240 degrees) at 12 MPH (10 knots; 5.1 m/s)
Visibility:6 or more sm (10+ km)
Ceiling:at least 12,000 feet AGL
Clouds:few clouds at 5000 feet AGL, scattered clouds at 10000 feet AGL